Time;durP1;ratioP1;P1;durP2;ratioP2;P2;SDS_P1;SDS_P2;PMS_P1;PMS_P2;Temp;Humidity;BMP_temperature;BMP_pressure;BME280_temperature;BME280_humidity;BME280_pressure;Samples;Min_cycle;Max_cycle;Signal;HPM_P1;HPM_P2
2022/04/14 00:00:17;;;;;;;3.38;1.90;;;12.80;53.00;;;;;;5058838;28;20027;-64
2022/04/14 00:02:42;;;;;;;3.83;2.00;;;12.70;53.20;;;;;;5064938;28;20025;-63
2022/04/14 00:05:08;;;;;;;3.45;1.58;;;12.70;53.10;;;;;;5064846;28;20056;-63
2022/04/14 00:07:34;;;;;;;5.18;1.88;;;12.70;53.00;;;;;;5059244;28;20022;-64
2022/04/14 00:10:00;;;;;;;3.17;1.67;;;12.60;53.00;;;;;;5056375;28;20449;-63
2022/04/14 00:12:26;;;;;;;2.28;1.88;;;12.60;53.10;;;;;;5053461;28;20030;-64
2022/04/14 00:14:51;;;;;;;5.03;1.92;;;12.60;53.20;;;;;;5059643;28;20032;-63
2022/04/14 00:17:17;;;;;;;5.55;1.60;;;12.50;53.30;;;;;;5063795;28;20066;-64
2022/04/14 00:19:43;;;;;;;3.88;1.90;;;12.50;53.40;;;;;;5065146;28;20017;-64
2022/04/14 00:22:09;;;;;;;5.85;1.75;;;12.50;53.60;;;;;;5064629;28;20340;-64
2022/04/14 00:24:35;;;;;;;5.57;1.80;;;12.40;53.70;;;;;;5063984;28;20039;-64
2022/04/14 00:27:00;;;;;;;2.78;1.83;;;12.40;53.80;;;;;;5058478;28;20021;-63
2022/04/14 00:29:26;;;;;;;4.85;1.80;;;12.40;53.80;;;;;;5049245;28;20568;-63
2022/04/14 00:31:51;;;;;;;4.20;1.70;;;12.30;53.70;;;;;;5063217;28;20512;-63
2022/04/14 00:34:17;;;;;;;4.20;1.88;;;12.30;53.80;;;;;;5067984;28;20016;-64
2022/04/14 00:36:43;;;;;;;4.22;1.80;;;12.30;53.90;;;;;;5064139;28;20441;-63
2022/04/14 00:39:11;;;;;;;6.78;1.75;;;12.30;54.00;;;;;;5033738;28;20041;-64
2022/04/14 00:41:40;;;;;;;6.53;1.67;;;12.20;54.10;;;;;;5048464;28;20025;-64
2022/04/14 00:44:06;;;;;;;3.35;1.90;;;12.20;54.20;;;;;;5049347;28;20029;-64
2022/04/14 00:46:32;;;;;;;4.20;2.30;;;12.10;54.30;;;;;;5063796;28;20080;-63
2022/04/14 00:48:58;;;;;;;4.57;2.10;;;12.10;54.40;;;;;;5053912;28;20051;-63
2022/04/14 00:51:24;;;;;;;6.82;2.00;;;12.10;54.60;;;;;;5056262;28;20036;-63
2022/04/14 00:53:49;;;;;;;3.67;1.52;;;12.00;54.70;;;;;;5062319;28;20025;-64
2022/04/14 00:56:15;;;;;;;3.00;1.83;;;12.00;54.70;;;;;;5055104;28;20092;-63
2022/04/14 00:58:41;;;;;;;2.25;1.80;;;12.00;54.70;;;;;;5054026;28;20017;-63
2022/04/14 01:01:08;;;;;;;3.53;2.13;;;12.00;54.80;;;;;;5060400;28;20104;-63
2022/04/14 01:03:35;;;;;;;4.88;2.13;;;11.90;55.00;;;;;;5061712;28;20508;-63
2022/04/14 01:06:02;;;;;;;2.90;1.60;;;11.90;55.00;;;;;;5057303;28;20437;-63
2022/04/14 01:08:29;;;;;;;2.50;1.58;;;11.90;55.10;;;;;;5060401;28;20028;-63
2022/04/14 01:10:57;;;;;;;7.72;2.22;;;11.80;55.20;;;;;;5054282;28;20112;-64
2022/04/14 01:13:23;;;;;;;3.67;1.98;;;11.80;55.30;;;;;;5062380;28;20037;-63
2022/04/14 01:15:48;;;;;;;6.65;2.15;;;11.80;55.30;;;;;;5062051;28;20029;-64
2022/04/14 01:18:15;;;;;;;6.00;2.00;;;11.80;56.00;;;;;;5058389;28;20089;-63
2022/04/14 01:20:43;;;;;;;4.45;1.90;;;11.80;55.50;;;;;;5060534;28;20170;-63
2022/04/14 01:23:10;;;;;;;4.15;2.00;;;11.80;55.70;;;;;;5053930;28;20477;-64
2022/04/14 01:25:36;;;;;;;3.67;1.92;;;11.70;55.70;;;;;;5064366;28;20132;-63
2022/04/14 01:28:02;;;;;;;2.88;2.10;;;11.70;55.80;;;;;;5059425;28;20039;-64
2022/04/14 01:30:29;;;;;;;3.63;1.88;;;11.70;56.00;;;;;;5047567;28;20092;-63
2022/04/14 01:32:55;;;;;;;3.97;2.20;;;11.70;56.00;;;;;;5049398;28;20022;-64
2022/04/14 01:35:22;;;;;;;2.08;1.88;;;11.70;56.00;;;;;;5061061;28;20029;-64
2022/04/14 01:37:49;;;;;;;3.78;2.28;;;11.70;56.10;;;;;;5051799;28;20037;-64
2022/04/14 01:40:14;;;;;;;3.83;2.20;;;11.70;56.10;;;;;;5055880;28;20017;-63
2022/04/14 01:42:40;;;;;;;3.50;1.98;;;11.70;56.30;;;;;;5061591;28;20375;-63
2022/04/14 01:45:09;;;;;;;2.67;1.95;;;11.60;56.20;;;;;;5063108;28;20051;-63
2022/04/14 01:47:42;;;;;;;2.75;1.75;;;11.60;56.30;;;;;;5061635;28;20045;-63
2022/04/14 01:50:12;;;;;;;4.00;1.73;;;11.60;56.80;;;;;;5062881;28;20477;-63
2022/04/14 01:52:39;;;;;;;4.53;1.88;;;11.60;56.30;;;;;;5065894;28;20024;-63
2022/04/14 01:55:06;;;;;;;2.95;1.63;;;11.60;56.40;;;;;;5051291;28;20478;-63
2022/04/14 01:57:32;;;;;;;9.65;1.90;;;11.50;56.40;;;;;;5057716;28;20354;-63
2022/04/14 02:00:03;;;;;;;7.45;2.10;;;11.60;56.50;;;;;;5038174;28;20028;-62
2022/04/14 02:02:28;;;;;;;4.93;1.80;;;11.50;56.80;;;;;;5053666;28;20033;-64
2022/04/14 02:04:54;;;;;;;7.75;1.88;;;11.50;56.60;;;;;;5063969;28;20493;-63
2022/04/14 02:07:20;;;;;;;6.85;2.05;;;11.50;56.70;;;;;;5051375;28;20029;-63
2022/04/14 02:09:45;;;;;;;5.07;1.60;;;11.50;56.60;;;;;;5054731;28;20082;-63
2022/04/14 02:12:12;;;;;;;2.65;1.88;;;11.50;56.60;;;;;;5063168;28;20056;-63
2022/04/14 02:14:39;;;;;;;4.68;1.83;;;11.50;56.70;;;;;;5052219;28;20017;-63
2022/04/14 02:17:05;;;;;;;2.15;1.52;;;11.40;56.70;;;;;;5053372;28;20386;-63
2022/04/14 02:19:30;;;;;;;4.07;1.90;;;11.40;56.80;;;;;;5054687;28;20099;-63
2022/04/14 02:21:58;;;;;;;3.83;2.25;;;11.40;56.90;;;;;;5048825;28;20032;-63
2022/04/14 02:24:25;;;;;;;6.03;2.33;;;11.40;57.00;;;;;;5059728;28;20028;-64
2022/04/14 02:26:51;;;;;;;8.05;2.40;;;11.40;57.10;;;;;;5056651;28;20064;-63
2022/04/14 02:29:16;;;;;;;2.92;2.00;;;11.40;57.10;;;;;;5055716;28;20021;-64
2022/04/14 02:31:42;;;;;;;5.80;2.28;;;11.40;57.20;;;;;;5067727;28;20036;-63
2022/04/14 02:34:08;;;;;;;5.15;1.90;;;11.40;57.20;;;;;;5056548;28;20022;-63
2022/04/14 02:36:33;;;;;;;3.70;1.85;;;11.30;57.20;;;;;;5060345;28;20020;-63
2022/04/14 02:38:59;;;;;;;6.57;2.00;;;11.30;57.40;;;;;;5058620;28;20107;-63
2022/04/14 02:41:25;;;;;;;3.50;1.90;;;11.30;57.40;;;;;;5032427;28;20049;-63
2022/04/14 02:43:50;;;;;;;3.08;2.10;;;11.30;57.50;;;;;;5058757;28;20068;-63
2022/04/14 02:46:16;;;;;;;2.80;1.83;;;11.30;57.50;;;;;;5057328;28;20028;-64
2022/04/14 02:48:41;;;;;;;3.70;2.03;;;11.30;57.50;;;;;;5051529;28;20032;-64
2022/04/14 02:51:07;;;;;;;3.80;2.05;;;11.20;57.50;;;;;;5057774;28;20025;-64
2022/04/14 02:53:33;;;;;;;3.00;1.80;;;11.20;57.70;;;;;;5059348;28;20060;-63
2022/04/14 02:55:59;;;;;;;5.53;1.73;;;11.20;57.70;;;;;;5049011;28;20022;-63
2022/04/14 02:58:24;;;;;;;2.28;1.80;;;11.20;57.80;;;;;;5057683;28;20033;-63
2022/04/14 03:00:50;;;;;;;3.78;2.08;;;11.20;57.80;;;;;;5055317;28;20026;-64
2022/04/14 03:03:17;;;;;;;3.80;2.03;;;11.10;57.90;;;;;;5060430;28;20655;-64
2022/04/14 03:05:42;;;;;;;4.85;2.33;;;11.10;57.70;;;;;;5063185;28;20060;-63
2022/04/14 03:08:08;;;;;;;4.03;1.92;;;11.10;57.90;;;;;;5059854;28;20026;-63
2022/04/14 03:10:34;;;;;;;4.88;1.85;;;11.10;57.90;;;;;;5057595;28;20084;-64
2022/04/14 03:13:00;;;;;;;3.75;2.00;;;11.10;57.90;;;;;;5064131;28;20024;-63
2022/04/14 03:15:26;;;;;;;2.60;1.58;;;11.10;57.90;;;;;;5055586;28;20026;-63
2022/04/14 03:17:53;;;;;;;2.17;1.55;;;11.10;58.00;;;;;;5061421;28;21177;-63
2022/04/14 03:20:19;;;;;;;7.25;1.98;;;11.10;58.10;;;;;;5059106;28;20100;-63
2022/04/14 03:22:44;;;;;;;8.05;2.50;;;11.10;58.20;;;;;;5061905;28;20067;-64
2022/04/14 03:25:13;;;;;;;4.97;2.10;;;11.00;58.20;;;;;;5055685;28;20395;-63
2022/04/14 03:27:39;;;;;;;4.30;1.80;;;11.00;58.30;;;;;;5058446;28;20104;-64
2022/04/14 03:30:06;;;;;;;6.05;2.30;;;11.00;58.10;;;;;;5064540;28;20021;-63
2022/04/14 03:32:33;;;;;;;5.70;2.10;;;11.00;58.20;;;;;;5070005;28;20033;-64
2022/04/14 03:35:05;;;;;;;2.53;1.90;;;11.00;58.20;;;;;;5045872;28;20021;-63
2022/04/14 03:37:30;;;;;;;5.20;2.03;;;10.90;58.70;;;;;;5067984;28;20156;-63
2022/04/14 03:39:56;;;;;;;7.15;2.03;;;10.90;58.30;;;;;;4961117;28;21165;-63
2022/04/14 03:42:22;;;;;;;2.90;2.15;;;10.90;58.50;;;;;;5055216;28;20122;-63
2022/04/14 03:44:47;;;;;;;5.10;2.05;;;10.90;58.50;;;;;;5051077;28;20043;-64
2022/04/14 03:47:13;;;;;;;5.07;2.40;;;10.90;58.50;;;;;;5060824;28;20024;-63
2022/04/14 03:49:38;;;;;;;10.40;2.22;;;10.90;58.50;;;;;;5059777;28;20028;-64
2022/04/14 03:52:05;;;;;;;4.00;2.30;;;10.80;58.50;;;;;;5065668;28;20044;-63
2022/04/14 03:54:30;;;;;;;2.40;2.03;;;10.80;58.50;;;;;;5037026;28;20226;-63
2022/04/14 03:56:56;;;;;;;4.30;2.30;;;10.80;58.50;;;;;;5060626;28;20025;-64
2022/04/14 03:59:21;;;;;;;6.65;2.08;;;10.80;58.40;;;;;;5051429;28;20025;-63
2022/04/14 04:01:47;;;;;;;5.50;2.20;;;10.70;58.30;;;;;;5064198;28;20016;-64
2022/04/14 04:04:13;;;;;;;2.95;2.03;;;10.70;58.20;;;;;;5068773;28;20040;-63
2022/04/14 04:06:39;;;;;;;5.05;2.42;;;10.70;58.20;;;;;;5060853;28;20033;-64
2022/04/14 04:09:05;;;;;;;2.90;2.28;;;10.70;58.20;;;;;;5064097;28;20028;-63
2022/04/14 04:11:30;;;;;;;7.53;2.38;;;10.60;58.20;;;;;;5055770;28;20052;-64
2022/04/14 04:13:56;;;;;;;4.68;2.63;;;10.60;58.20;;;;;;5063446;28;20082;-63
2022/04/14 04:16:21;;;;;;;5.45;2.53;;;10.60;58.50;;;;;;5063215;28;20079;-64
2022/04/14 04:18:47;;;;;;;4.20;2.92;;;10.50;58.50;;;;;;5064303;28;20017;-63
2022/04/14 04:21:13;;;;;;;3.67;2.63;;;10.50;58.80;;;;;;5055167;28;20028;-63
2022/04/14 04:23:38;;;;;;;5.43;2.78;;;10.50;59.00;;;;;;5060014;28;20033;-64
2022/04/14 04:26:04;;;;;;;5.93;2.45;;;10.50;59.00;;;;;;5061368;28;20029;-63
2022/04/14 04:28:33;;;;;;;8.63;2.85;;;10.50;59.10;;;;;;5064682;28;20060;-64
2022/04/14 04:30:58;;;;;;;6.78;2.70;;;10.40;59.10;;;;;;5060610;28;20029;-64
2022/04/14 04:33:24;;;;;;;10.07;3.03;;;10.50;59.10;;;;;;5068015;28;20051;-63
2022/04/14 04:35:51;;;;;;;13.07;2.88;;;10.40;59.20;;;;;;5056505;28;20025;-63
2022/04/14 04:38:17;;;;;;;8.88;2.83;;;10.40;59.30;;;;;;5038569;28;20037;-64
2022/04/14 04:40:42;;;;;;;14.88;3.17;;;10.40;59.30;;;;;;5035214;28;20036;-64
2022/04/14 04:43:15;;;;;;;4.00;2.60;;;10.40;59.30;;;;;;5042351;28;20030;-64
2022/04/14 04:45:41;;;;;;;8.63;2.58;;;10.40;59.20;;;;;;5031792;28;20021;-64
2022/04/14 04:48:07;;;;;;;5.93;2.42;;;10.40;59.20;;;;;;5038649;28;20113;-65
2022/04/14 04:50:33;;;;;;;5.53;2.75;;;10.40;59.20;;;;;;5039066;28;20030;-64
2022/04/14 04:52:59;;;;;;;3.22;2.40;;;10.30;59.20;;;;;;5043629;28;20052;-64
2022/04/14 04:55:24;;;;;;;7.50;2.75;;;10.30;59.30;;;;;;5033948;28;20080;-65
2022/04/14 04:57:50;;;;;;;4.15;2.42;;;10.30;59.30;;;;;;5043895;28;20029;-64
2022/04/14 05:00:16;;;;;;;12.35;2.45;;;10.30;59.30;;;;;;5039939;28;20025;-65
2022/04/14 05:02:42;;;;;;;5.45;2.65;;;10.40;59.40;;;;;;5048459;28;20320;-64
2022/04/14 05:05:08;;;;;;;10.85;2.67;;;10.30;59.40;;;;;;5040506;28;20056;-64
2022/04/14 05:07:34;;;;;;;6.10;2.78;;;10.30;59.40;;;;;;5040219;28;20098;-65
2022/04/14 05:10:00;;;;;;;5.22;2.45;;;10.30;59.40;;;;;;5043550;28;20029;-65
2022/04/14 05:12:25;;;;;;;7.25;2.60;;;10.30;59.50;;;;;;5039430;28;20041;-64
2022/04/14 05:14:51;;;;;;;5.95;2.88;;;10.30;59.50;;;;;;5035162;28;20036;-64
2022/04/14 05:17:18;;;;;;;6.22;2.75;;;10.40;59.80;;;;;;5042741;28;20148;-64
2022/04/14 05:19:44;;;;;;;6.00;2.47;;;10.40;59.80;;;;;;5033832;28;20021;-65
2022/04/14 05:22:09;;;;;;;6.65;2.95;;;10.40;59.80;;;;;;5039359;28;20036;-65
2022/04/14 05:24:35;;;;;;;5.22;2.65;;;10.40;59.90;;;;;;5033776;28;20035;-64
2022/04/14 05:27:01;;;;;;;6.45;3.10;;;10.50;60.00;;;;;;5038174;28;20073;-65
2022/04/14 05:29:26;;;;;;;4.88;2.72;;;10.50;60.00;;;;;;5042467;28;20585;-64
2022/04/14 05:31:52;;;;;;;7.38;2.75;;;10.60;60.10;;;;;;5038636;28;20113;-65
2022/04/14 05:34:18;;;;;;;6.53;2.78;;;10.70;60.10;;;;;;5044599;28;20056;-64
2022/04/14 05:36:43;;;;;;;4.68;2.47;;;10.80;60.10;;;;;;5045583;28;20080;-65
2022/04/14 05:39:09;;;;;;;5.53;2.63;;;10.80;60.00;;;;;;5042192;28;20025;-65
2022/04/14 05:41:34;;;;;;;5.30;2.60;;;10.90;60.00;;;;;;5064449;28;20074;-65
2022/04/14 05:44:00;;;;;;;4.32;3.00;;;11.00;59.90;;;;;;5058829;28;20493;-65
2022/04/14 05:46:26;;;;;;;5.55;3.05;;;11.10;59.90;;;;;;5054191;28;20533;-65
2022/04/14 05:48:51;;;;;;;9.07;2.78;;;11.20;59.80;;;;;;5064090;28;20374;-65
2022/04/14 05:51:18;;;;;;;7.25;3.05;;;11.30;59.90;;;;;;5061382;28;20029;-65
2022/04/14 05:53:44;;;;;;;5.65;3.17;;;11.40;59.70;;;;;;5044115;28;20052;-65
2022/04/14 05:56:10;;;;;;;10.95;3.45;;;11.50;59.70;;;;;;5052218;28;20095;-65
2022/04/14 05:58:35;;;;;;;7.65;3.17;;;11.50;59.50;;;;;;5065017;28;20038;-65
2022/04/14 06:01:01;;;;;;;6.75;2.88;;;11.60;59.40;;;;;;5058803;28;20036;-64
2022/04/14 06:03:27;;;;;;;6.53;2.90;;;11.70;59.30;;;;;;5053608;28;20096;-65
2022/04/14 06:05:52;;;;;;;14.20;3.72;;;11.80;59.30;;;;;;5053931;28;20048;-64
2022/04/14 06:08:19;;;;;;;7.97;3.53;;;11.90;59.30;;;;;;5054099;28;20083;-65
2022/04/14 06:10:45;;;;;;;9.27;2.83;;;11.90;59.20;;;;;;5061542;28;20013;-65
2022/04/14 06:13:11;;;;;;;9.23;3.03;;;12.00;59.10;;;;;;5041505;28;20035;-64
2022/04/14 06:15:37;;;;;;;10.82;2.83;;;12.10;59.10;;;;;;5062020;28;20027;-65
2022/04/14 06:18:03;;;;;;;9.10;3.08;;;12.20;59.00;;;;;;5060267;28;20397;-65
2022/04/14 06:20:29;;;;;;;10.65;3.03;;;12.20;58.90;;;;;;5051291;28;20033;-65
2022/04/14 06:22:57;;;;;;;10.00;3.28;;;12.30;58.90;;;;;;5054724;28;20092;-65
2022/04/14 06:25:22;;;;;;;9.45;3.50;;;12.40;58.80;;;;;;4956187;28;20726;-65
2022/04/14 06:27:49;;;;;;;13.02;3.47;;;12.50;58.70;;;;;;5057384;28;20036;-65
2022/04/14 06:30:17;;;;;;;21.55;3.70;;;12.50;58.60;;;;;;5055401;28;20124;-65
2022/04/14 06:32:58;;;;;;;7.13;3.40;;;12.60;58.60;;;;;;5059877;28;20021;-65
2022/04/14 06:35:23;;;;;;;9.00;3.20;;;12.70;59.00;;;;;;5052754;28;20033;-65
2022/04/14 06:37:49;;;;;;;7.80;3.53;;;12.70;58.60;;;;;;5058424;28;20048;-65
2022/04/14 06:40:15;;;;;;;9.50;3.15;;;12.80;58.50;;;;;;5050515;28;20029;-64
2022/04/14 06:42:40;;;;;;;11.63;3.65;;;12.90;58.50;;;;;;5056323;28;20086;-65
2022/04/14 06:45:07;;;;;;;7.45;3.30;;;13.00;58.50;;;;;;5055966;28;20056;-64
2022/04/14 06:47:33;;;;;;;11.75;3.08;;;13.00;58.40;;;;;;5050741;28;20025;-65
2022/04/14 06:49:58;;;;;;;10.27;3.63;;;13.20;58.50;;;;;;5057654;28;20377;-65
2022/04/14 06:52:24;;;;;;;13.00;3.60;;;13.30;58.50;;;;;;5055668;28;20085;-65
2022/04/14 06:54:50;;;;;;;9.50;3.55;;;13.40;58.40;;;;;;5048924;28;20016;-65
2022/04/14 06:57:16;;;;;;;19.45;4.03;;;13.60;58.40;;;;;;5051897;28;20026;-65
2022/04/14 06:59:42;;;;;;;15.98;3.42;;;13.70;58.20;;;;;;5061912;28;20031;-64
2022/04/14 07:02:08;;;;;;;11.10;3.70;;;13.90;58.00;;;;;;5057474;28;20048;-65
2022/04/14 07:04:34;;;;;;;5.70;3.08;;;14.10;57.90;;;;;;5059989;28;20056;-65
2022/04/14 07:06:59;;;;;;;10.35;3.50;;;14.30;57.70;;;;;;5059124;28;20017;-64
2022/04/14 07:09:28;;;;;;;9.88;3.40;;;14.40;57.50;;;;;;5057665;28;20056;-65
2022/04/14 07:11:54;;;;;;;8.35;3.63;;;14.60;57.40;;;;;;5055224;28;20047;-64
2022/04/14 07:14:19;;;;;;;8.60;3.70;;;14.80;57.30;;;;;;5032744;28;20033;-65
2022/04/14 07:16:45;;;;;;;6.18;3.33;;;15.00;57.10;;;;;;5037277;28;20025;-65
2022/04/14 07:19:11;;;;;;;7.88;3.40;;;15.20;56.90;;;;;;5063702;28;20068;-65
2022/04/14 07:21:36;;;;;;;10.63;3.60;;;15.40;56.70;;;;;;5048236;28;20025;-65
2022/04/14 07:24:02;;;;;;;9.55;3.85;;;15.50;56.50;;;;;;5056673;28;20041;-65
2022/04/14 07:26:28;;;;;;;9.30;4.03;;;15.70;56.40;;;;;;5057687;28;20161;-65
2022/04/14 07:28:53;;;;;;;10.68;4.00;;;15.90;56.20;;;;;;5065478;28;20029;-65
2022/04/14 07:31:19;;;;;;;16.23;4.93;;;16.00;56.10;;;;;;5055788;28;20040;-65
2022/04/14 07:33:45;;;;;;;8.75;4.78;;;16.20;55.90;;;;;;5056367;28;20299;-65
2022/04/14 07:36:12;;;;;;;7.03;3.88;;;16.30;55.70;;;;;;5059325;28;20028;-65
2022/04/14 07:38:38;;;;;;;10.07;4.68;;;16.40;55.60;;;;;;5051196;28;20049;-65
2022/04/14 07:41:05;;;;;;;6.32;3.78;;;16.50;55.50;;;;;;5060290;28;20036;-65
2022/04/14 07:43:32;;;;;;;14.73;4.95;;;16.70;55.40;;;;;;5054373;28;20029;-65
2022/04/14 07:45:58;;;;;;;9.77;4.22;;;16.80;55.30;;;;;;5065626;28;20016;-65
2022/04/14 07:48:23;;;;;;;14.50;4.38;;;17.00;55.10;;;;;;5056087;28;20025;-65
2022/04/14 07:50:49;;;;;;;10.43;3.85;;;17.20;54.90;;;;;;5065216;28;20047;-65
2022/04/14 07:53:15;;;;;;;8.32;3.97;;;17.30;54.70;;;;;;5057105;28;20056;-65
2022/04/14 07:55:41;;;;;;;10.38;4.03;;;17.50;54.50;;;;;;5055107;28;20044;-65
2022/04/14 07:58:07;;;;;;;11.05;4.07;;;17.70;54.40;;;;;;5056271;28;20048;-65
2022/04/14 08:00:37;;;;;;;8.77;3.50;;;17.80;54.00;;;;;;5066564;28;20020;-65
2022/04/14 08:03:05;;;;;;;11.93;4.07;;;18.00;53.90;;;;;;5052745;28;20103;-65
2022/04/14 08:05:33;;;;;;;13.80;4.60;;;18.20;53.90;;;;;;5055566;28;20060;-65
2022/04/14 08:08:00;;;;;;;8.63;3.83;;;18.30;53.70;;;;;;5055823;28;20025;-65
2022/04/14 08:10:26;;;;;;;11.05;4.45;;;18.50;53.50;;;;;;5056396;28;20029;-65
2022/04/14 08:12:53;;;;;;;12.00;4.68;;;18.70;53.40;;;;;;5063568;28;20093;-65
2022/04/14 08:15:19;;;;;;;13.50;4.72;;;18.90;53.10;;;;;;5058014;28;20123;-65
2022/04/14 08:17:45;;;;;;;12.02;4.38;;;19.10;53.20;;;;;;5050727;28;20055;-65
2022/04/14 08:20:12;;;;;;;9.40;4.63;;;19.30;53.10;;;;;;5060190;28;20059;-65
2022/04/14 08:22:50;;;;;;;12.80;4.90;;;19.50;52.90;;;;;;5061887;28;20029;-65
2022/04/14 08:25:20;;;;;;;11.15;4.82;;;19.70;52.00;;;;;;5061164;28;20025;-65
2022/04/14 08:27:47;;;;;;;12.65;4.60;;;19.80;51.90;;;;;;5065521;28;20033;-65
2022/04/14 08:30:14;;;;;;;12.90;5.30;;;19.90;51.70;;;;;;5062998;28;20020;-65
2022/04/14 08:32:40;;;;;;;13.73;6.80;;;19.90;51.20;;;;;;5068336;28;20033;-65
2022/04/14 08:35:06;;;;;;;13.40;5.32;;;20.00;51.00;;;;;;5061890;28;20390;-64
2022/04/14 08:37:32;;;;;;;11.00;5.20;;;20.10;50.90;;;;;;5061220;28;20606;-65
2022/04/14 08:39:58;;;;;;;14.68;5.63;;;20.10;50.90;;;;;;5068686;28;20025;-64
2022/04/14 08:42:35;;;;;;;13.05;5.38;;;20.20;50.30;;;;;;5064094;28;20558;-65
2022/04/14 08:45:03;;;;;;;14.70;5.45;;;20.30;50.00;;;;;;5047915;28;20075;-65
2022/04/14 08:47:29;;;;;;;13.15;5.05;;;20.30;50.00;;;;;;5057529;28;20063;-65
2022/04/14 08:49:57;;;;;;;17.55;5.78;;;20.40;50.10;;;;;;5057992;28;20017;-65
2022/04/14 08:52:25;;;;;;;13.52;4.95;;;20.50;49.90;;;;;;5058307;28;20089;-65
2022/04/14 08:54:55;;;;;;;8.35;4.75;;;20.60;49.90;;;;;;5065820;28;20045;-65
2022/04/14 08:57:24;;;;;;;9.27;4.80;;;20.70;50.00;;;;;;5059853;28;20045;-65
2022/04/14 08:59:50;;;;;;;10.50;4.45;;;20.90;49.40;;;;;;5053334;28;20028;-65
2022/04/14 09:02:23;;;;;;;9.93;5.20;;;21.10;49.30;;;;;;5059354;28;20027;-65
2022/04/14 09:04:49;;;;;;;9.77;4.28;;;21.30;48.20;;;;;;5053328;28;20033;-65
2022/04/14 09:07:15;;;;;;;8.48;4.25;;;21.40;48.60;;;;;;5057166;28;20044;-65
2022/04/14 09:09:41;;;;;;;9.77;4.38;;;21.50;48.30;;;;;;5060388;28;20029;-65
2022/04/14 09:12:09;;;;;;;7.10;4.18;;;21.70;48.20;;;;;;5055532;28;20481;-65
2022/04/14 09:14:35;;;;;;;9.40;4.10;;;21.90;47.90;;;;;;5063183;28;20101;-65
2022/04/14 09:17:02;;;;;;;14.32;4.40;;;22.00;47.80;;;;;;5047837;28;20025;-65
2022/04/14 09:19:31;;;;;;;9.50;3.92;;;22.20;47.80;;;;;;5064244;28;20025;-65
2022/04/14 09:22:05;;;;;;;10.10;4.60;;;22.40;47.50;;;;;;5043098;28;20448;-65
2022/04/14 09:24:43;;;;;;;8.13;4.07;;;22.60;46.70;;;;;;5052230;28;20057;-65
2022/04/14 09:27:09;;;;;;;14.32;4.85;;;22.80;45.70;;;;;;5057504;28;20117;-66
2022/04/14 09:29:47;;;;;;;11.00;4.78;;;22.90;46.30;;;;;;5055326;28;20018;-65
2022/04/14 09:32:27;;;;;;;10.98;5.63;;;23.00;45.60;;;;;;5058577;28;20017;-65
2022/04/14 09:34:53;;;;;;;18.65;4.68;;;23.10;45.50;;;;;;5051176;28;20032;-66
2022/04/14 09:37:20;;;;;;;10.30;5.22;;;23.10;45.80;;;;;;5059735;28;20045;-66
2022/04/14 09:40:00;;;;;;;12.45;4.97;;;23.20;45.10;;;;;;5057793;28;20024;-66
2022/04/14 09:42:32;;;;;;;7.57;4.43;;;23.20;44.70;;;;;;5053189;28;20059;-66
2022/04/14 09:45:17;;;;;;;8.70;4.63;;;23.30;44.80;;;;;;5060100;28;20029;-65
2022/04/14 09:47:43;;;;;;;11.35;5.00;;;23.30;44.60;;;;;;5051694;28;20021;-65
2022/04/14 09:50:27;;;;;;;14.15;4.43;;;23.40;44.60;;;;;;5059757;28;20013;-66
2022/04/14 09:53:07;;;;;;;9.75;5.07;;;23.40;43.70;;;;;;5047470;28;20029;-65
2022/04/14 09:55:54;;;;;;;11.68;5.03;;;23.50;43.50;;;;;;5056945;28;20064;-64
2022/04/14 09:58:25;;;;;;;13.15;4.88;;;23.60;43.70;;;;;;5059555;28;20415;-64
2022/04/14 10:00:51;;;;;;;14.60;5.20;;;23.60;44.20;;;;;;5059518;28;20033;-65
2022/04/14 10:03:24;;;;;;;9.45;5.07;;;23.60;43.80;;;;;;5056430;28;20057;-64
2022/04/14 10:05:53;;;;;;;8.77;4.80;;;23.70;43.50;;;;;;5056776;28;20029;-64
2022/04/14 10:08:19;;;;;;;12.77;4.60;;;23.70;43.30;;;;;;5044505;28;20029;-64
2022/04/14 10:10:47;;;;;;;8.98;4.28;;;23.70;43.10;;;;;;5057403;28;20036;-64
2022/04/14 10:13:18;;;;;;;7.57;4.10;;;23.70;43.10;;;;;;5062019;28;20651;-64
2022/04/14 10:15:45;;;;;;;9.02;4.68;;;23.80;42.70;;;;;;5061719;28;20044;-64
2022/04/14 10:18:13;;;;;;;8.90;4.35;;;23.80;42.90;;;;;;5055880;28;20219;-64
2022/04/14 10:20:40;;;;;;;6.72;3.92;;;23.90;43.30;;;;;;5062187;28;20045;-64
2022/04/14 10:23:08;;;;;;;7.28;4.10;;;24.00;42.80;;;;;;5056362;28;20020;-64
2022/04/14 10:25:38;;;;;;;5.25;3.58;;;24.10;43.10;;;;;;5048608;28;20025;-64
2022/04/14 10:28:06;;;;;;;7.90;3.40;;;24.20;41.90;;;;;;5056371;28;20021;-64
2022/04/14 10:30:32;;;;;;;8.73;3.90;;;24.30;41.90;;;;;;5057605;28;20029;-64
2022/04/14 10:32:58;;;;;;;9.10;3.28;;;24.40;41.40;;;;;;5051756;28;20539;-64
2022/04/14 10:35:29;;;;;;;9.80;4.00;;;24.40;41.00;;;;;;5049966;28;20465;-65
2022/04/14 10:38:03;;;;;;;8.30;3.22;;;24.50;40.40;;;;;;5054941;28;20110;-65
2022/04/14 10:40:31;;;;;;;9.30;3.55;;;24.60;40.30;;;;;;5060502;28;20107;-64
2022/04/14 10:42:58;;;;;;;5.70;3.42;;;24.60;40.70;;;;;;5045566;28;20025;-64
2022/04/14 10:45:24;;;;;;;9.90;3.13;;;24.70;40.30;;;;;;5051568;28;20053;-65
2022/04/14 10:47:50;;;;;;;5.35;3.28;;;24.80;40.10;;;;;;5055115;28;20029;-64
2022/04/14 10:50:25;;;;;;;9.25;3.65;;;24.90;39.90;;;;;;5052091;28;20821;-64
2022/04/14 10:53:03;;;;;;;6.32;3.35;;;25.00;39.20;;;;;;5058809;28;20111;-65
2022/04/14 10:55:36;;;;;;;7.05;3.15;;;25.10;38.20;;;;;;5050098;28;20104;-65
2022/04/14 11:00:31;;;;;;;9.95;3.78;;;25.30;39.20;;;;;;4976957;28;20074;-64
2022/04/14 11:03:12;;;;;;;7.13;3.75;;;25.40;39.00;;;;;;4983459;28;20047;-65
2022/04/14 11:05:41;;;;;;;8.73;3.80;;;25.50;38.10;;;;;;4978089;28;20041;-65
2022/04/14 11:08:26;;;;;;;5.72;3.35;;;25.60;38.50;;;;;;4983870;28;20023;-65
2022/04/14 11:11:10;;;;;;;6.05;3.42;;;25.70;37.30;;;;;;4966718;28;20620;-65
2022/04/14 11:13:58;;;;;;;9.30;3.65;;;25.90;37.30;;;;;;4984255;28;20101;-65
2022/04/14 11:16:40;;;;;;;7.32;3.45;;;25.90;36.40;;;;;;4975417;28;20038;-65
2022/04/14 11:19:22;;;;;;;7.60;3.45;;;26.00;35.50;;;;;;4978515;28;20120;-65
2022/04/14 11:22:09;;;;;;;10.48;3.70;;;26.10;36.10;;;;;;4978659;28;20019;-65
2022/04/14 11:24:41;;;;;;;10.85;3.85;;;26.10;36.00;;;;;;4973814;28;20058;-65
2022/04/14 11:27:31;;;;;;;9.52;3.55;;;26.10;36.00;;;;;;4982983;28;20118;-65
2022/04/14 11:30:01;;;;;;;3.95;2.58;;;26.20;36.60;;;;;;4981288;28;20053;-65
2022/04/14 11:32:40;;;;;;;7.05;3.05;;;26.30;37.20;;;;;;4979597;28;20062;-65
2022/04/14 11:35:16;;;;;;;5.45;2.92;;;26.40;34.50;;;;;;4988718;28;20022;-62
2022/04/14 11:37:43;;;;;;;5.57;3.15;;;26.50;34.30;;;;;;4982569;28;20097;-61
2022/04/14 11:40:13;;;;;;;6.63;3.17;;;26.80;35.60;;;;;;4981579;28;20030;-61
2022/04/14 11:42:39;;;;;;;7.78;3.50;;;26.70;34.40;;;;;;4982430;28;20026;-61
2022/04/14 11:45:05;;;;;;;6.20;3.45;;;26.80;34.80;;;;;;4985879;28;20848;-61
2022/04/14 11:47:33;;;;;;;8.23;2.60;;;26.90;34.80;;;;;;4988000;28;20030;-61
2022/04/14 11:49:59;;;;;;;5.78;2.75;;;27.00;34.60;;;;;;4983902;28;20027;-61
2022/04/14 11:52:25;;;;;;;5.15;3.30;;;27.10;34.10;;;;;;4989678;28;20049;-62
2022/04/14 11:54:51;;;;;;;5.18;3.13;;;27.10;33.80;;;;;;4987080;28;20385;-62
2022/04/14 11:57:25;;;;;;;7.65;3.40;;;27.20;33.90;;;;;;4987902;28;20119;-62
2022/04/14 11:59:51;;;;;;;14.32;3.38;;;27.20;33.60;;;;;;4980070;28;20053;-62
2022/04/14 12:02:18;;;;;;;8.65;3.10;;;27.30;34.00;;;;;;4985665;28;20022;-61
2022/04/14 12:04:43;;;;;;;4.65;2.88;;;27.40;33.60;;;;;;4996116;28;20041;-62
2022/04/14 12:07:09;;;;;;;7.20;2.80;;;27.40;34.10;;;;;;4989796;28;20109;-61
2022/04/14 12:09:37;;;;;;;5.50;2.95;;;27.50;33.70;;;;;;4982567;28;20071;-62
2022/04/14 12:12:16;;;;;;;6.85;4.13;;;27.50;32.60;;;;;;4985485;28;20054;-61
2022/04/14 12:14:50;;;;;;;7.07;3.53;;;27.50;31.00;;;;;;4982938;28;20026;-61
2022/04/14 12:17:22;;;;;;;4.80;2.83;;;27.50;31.30;;;;;;4984685;28;20050;-61
2022/04/14 12:20:00;;;;;;;6.35;2.97;;;27.50;32.20;;;;;;4983154;28;20043;-61
2022/04/14 12:22:28;;;;;;;5.15;2.85;;;27.40;31.20;;;;;;4980690;28;20022;-62
2022/04/14 12:24:57;;;;;;;8.80;2.80;;;27.50;31.40;;;;;;4988483;28;20524;-61
2022/04/14 12:27:30;;;;;;;6.50;3.10;;;27.50;31.30;;;;;;4979747;28;20038;-62
2022/04/14 12:30:03;;;;;;;5.18;2.58;;;27.60;32.40;;;;;;4983562;28;20058;-61
2022/04/14 12:32:29;;;;;;;12.40;2.72;;;27.60;32.30;;;;;;4982729;28;20040;-62
2022/04/14 12:34:56;;;;;;;5.43;2.55;;;27.70;31.30;;;;;;4989888;28;20063;-61
2022/04/14 12:37:22;;;;;;;11.88;3.45;;;27.90;31.20;;;;;;4984430;28;20542;-61
2022/04/14 12:40:00;;;;;;;5.70;3.08;;;28.00;31.60;;;;;;4985367;28;20661;-62
2022/04/14 12:42:33;;;;;;;8.43;3.20;;;28.00;30.60;;;;;;4988270;28;20357;-62
2022/04/14 12:45:13;;;;;;;7.38;2.50;;;28.10;30.60;;;;;;4981174;28;20043;-62
2022/04/14 12:47:41;;;;;;;5.05;2.42;;;28.10;31.40;;;;;;4985707;28;20026;-61
2022/04/14 12:50:07;;;;;;;6.70;3.05;;;28.20;30.20;;;;;;4982668;28;20533;-62